• Join FlightAware (Why Join?)
  • Login
  • US Flag 
07:08AM EDT


 

Airport Tracker/Info


-or-


 

Live Flight TrackerFlight Track Log ✈ THY2458 ✈ 04-Jul-2014 ✈ LTBA / IST - LTAF / ADA

Flight Track Log - Related Links

Times and Time Zones

All times are in EDT time to prevent confusion due to time zone crossing. See the THY2458 flight status page for this flight to view local times or setup timezone preferences in your user account.

Time Position Orientation Groundspeed Altitude Reporting Facility
EDT Latitude Longitude Course Direction KTS MPH feet Rate Location/Type
02:45AM 40.3590 29.9104 126° Southeast  Level Estimated
02:46AM 40.2897 30.0301 127° Southeast  Level Estimated
02:47AM 40.2203 30.1497 127° Southeast  Level Estimated
02:48AM 40.1508 30.2690 127° Southeast  Level Estimated
02:49AM 40.0812 30.3880 127° Southeast  Level Estimated
02:50AM 40.0114 30.5068 127° Southeast  Level Estimated
02:51AM 39.9415 30.6254 128° Southeast  Level Estimated
02:52AM 39.8715 30.7437 128° Southeast  Level Estimated
02:53AM 39.8014 30.8618 128° Southeast  Level Estimated
02:54AM 39.7311 30.9797 128° Southeast  Level Estimated
02:55AM 39.6608 31.0973 128° Southeast  Level Estimated
02:56AM 39.5903 31.2146 128° Southeast  Level Estimated
02:57AM 39.5197 31.3317 128° Southeast  Level Estimated
02:58AM 39.4490 31.4486 128° Southeast  Level Estimated
02:59AM 39.3781 31.5653 128° Southeast  Level Estimated
03:00AM 39.3072 31.6817 128° Southeast  Level Estimated
03:01AM 39.2361 31.7979 128° Southeast  Level Estimated
03:02AM 39.1649 31.9138 128° Southeast  Level Estimated
03:03AM 39.0936 32.0295 128° Southeast  Level Estimated
03:04AM 39.0222 32.1450 128° Southeast  Level Estimated
03:05AM 38.9506 32.2602 129° Southeast  Level Estimated
03:06AM 38.8790 32.3752 129° Southeast  Level Estimated
03:07AM 38.8073 32.4900 129° Southeast  Level Estimated
03:08AM 38.7354 32.6045 129° Southeast  Level Estimated
03:09AM 38.6634 32.7188 129° Southeast  Level Estimated
03:10AM 38.5913 32.8329 129° Southeast  Level Estimated
03:11AM 38.5191 32.9468 129° Southeast  Level Estimated
03:12AM 38.4468 33.0604 129° Southeast  Level Estimated
03:13AM 38.3744 33.1738 129° Southeast  Level Estimated
03:14AM 38.3019 33.2870 129° Southeast  Level Estimated
03:15AM 38.2292 33.3999 129° Southeast  Level Estimated
03:16AM 38.1565 33.5126 129° Southeast  Level Estimated
03:17AM 38.0836 33.6251 129° Southeast  Level Estimated
03:18AM 38.0107 33.7374 129° Southeast  Level Estimated
03:19AM 37.9376 33.8494 130° Southeast  Level Estimated
03:20AM 37.8644 33.9613 130° Southeast  Level Estimated
03:21AM 37.7912 34.0729 130° Southeast  Level Estimated
03:22AM 37.7178 34.1843 130° Southeast  Level Estimated
03:23AM 37.6443 34.2954 130° Southeast  Level Estimated
03:24AM 37.5707 34.4064 130° Southeast  Level Estimated
03:25AM 37.4970 34.5171 130° Southeast  Level Estimated
03:26AM 37.4232 34.6276 130° Southeast  Level Estimated
03:27AM 37.3493 34.7379 130° Southeast  Level Estimated
03:28AM 37.2753 34.8479 130° Southeast  Level Estimated
03:29AM 37.2012 34.9578 130° Southeast  Level Estimated
03:30AM 37.1270 35.0674 130° Southeast  Level Estimated
03:31AM 37.0527 35.1768 130° Southeast  Level Estimated
03:32AM 36.9822 35.2804 130° Southeast  Level Estimated
03:33AM 36.9822 35.2804 North  Level Estimated
03:34AM 36.9822 35.2804 North  Level Estimated
03:35AM 36.9822 35.2804 North  Level Estimated
03:36AM 36.9822 35.2804 North  Level Estimated
03:37AM 36.9822 35.2804 North  Level Estimated
03:38AM 36.9822 35.2804 North  Level Estimated
03:39AM 36.9822 35.2804 North  Level Estimated
03:40AM 36.9822 35.2804 North  Level Estimated
03:41AM 36.9822 35.2804 North  Level Estimated
03:42AM 36.9822 35.2804 North  Level Estimated
03:43AM 36.9822 35.2804 North  Level Estimated
03:44AM 36.9822 35.2804 North  Level Estimated
03:45AM 36.9822 35.2804 North  Level Estimated
03:46AM 36.9822 35.2804 North  Level Estimated
03:47AM 36.9822 35.2804 North  Level Estimated
03:48AM 36.9822 35.2804 North  Level Estimated